GLD1793 LPGR-LPSJ

Flight info

Callsign GLD1793
Flight time 0h 14m
Altitude 3500
Route DCT NOTMA DCT ELBEN DCT
Aircraft BE58/M-SDFGIRY/S

Departure

Time 2026-05-08 18:01
Airport Graciosa Airport (LPGR)

Arrival

Time 2026-05-08 18:15
Airport São Jorge Airport (LPSJ)
Time Latitude Longitude Altitude Speed Heading
2026-05-08 17:52 39.09138 -28.02865 97 ft 0 kts 85°
2026-05-08 17:56 39.09138 -28.02864 97 ft 2 kts 80°
2026-05-08 17:56 39.09161 -28.02849 96 ft 4 kts 12°
2026-05-08 17:57 39.09192 -28.02851 92 ft 1 kts 348°
2026-05-08 17:57 39.09195 -28.02852 92 ft 0 kts 348°
2026-05-08 17:58 39.09225 -28.02874 88 ft 12 kts 289°
2026-05-08 17:58 39.09215 -28.02972 86 ft 12 kts 259°
2026-05-08 17:58 39.09197 -28.03100 87 ft 16 kts 258°
2026-05-08 17:58 39.09179 -28.03241 86 ft 16 kts 268°
2026-05-08 17:59 39.09156 -28.03380 87 ft 15 kts 258°
2026-05-08 17:59 39.09142 -28.03498 89 ft 12 kts 257°
2026-05-08 17:59 39.09120 -28.03527 92 ft 8 kts 69°
2026-05-08 17:59 39.09134 -28.03463 91 ft 8 kts 78°
2026-05-08 18:00 39.09147 -28.03395 90 ft 8 kts 77°
2026-05-08 18:00 39.09403 -28.02267 268 ft 95 kts 60°
2026-05-08 18:00 39.09581 -28.01345 546 ft 130 kts 73°
2026-05-08 18:01 39.09662 -28.00060 719 ft 151 kts 71°
2026-05-08 18:01 39.09927 -27.98706 923 ft 162 kts 65°
2026-05-08 18:01 39.10210 -27.97252 1114 ft 172 kts 68°
2026-05-08 18:01 39.10474 -27.95723 1291 ft 176 kts 69°
2026-05-08 18:02 39.10708 -27.94181 1453 ft 183 kts 79°
2026-05-08 18:02 39.10323 -27.92569 1612 ft 202 kts 121°
2026-05-08 18:02 39.09146 -27.91528 1771 ft 212 kts 163°
2026-05-08 18:02 39.07713 -27.91587 1924 ft 209 kts 204°
2026-05-08 18:03 39.06557 -27.92621 2085 ft 201 kts 230°
2026-05-08 18:03 39.05445 -27.93734 2240 ft 206 kts 215°
2026-05-08 18:03 39.04116 -27.94473 2396 ft 210 kts 203°
2026-05-08 18:03 39.02730 -27.95093 2553 ft 211 kts 204°
2026-05-08 18:04 39.01353 -27.95751 2713 ft 211 kts 206°
2026-05-08 18:04 38.99993 -27.96426 2872 ft 209 kts 206°
2026-05-08 18:04 38.98630 -27.97100 3019 ft 210 kts 206°
2026-05-08 18:04 38.97260 -27.97774 3183 ft 212 kts 206°
2026-05-08 18:05 38.95875 -27.98455 3340 ft 213 kts 206°
2026-05-08 18:05 38.94483 -27.99138 3487 ft 215 kts 206°
2026-05-08 18:05 38.93067 -27.99836 3502 ft 221 kts 206°
2026-05-08 18:05 38.91613 -28.00550 3511 ft 228 kts 206°
2026-05-08 18:06 38.90141 -28.01275 3509 ft 230 kts 205°
2026-05-08 18:06 38.88633 -28.02010 3510 ft 228 kts 205°
2026-05-08 18:06 38.87158 -28.02731 3505 ft 227 kts 205°
2026-05-08 18:06 38.85711 -28.03441 3504 ft 225 kts 205°
2026-05-08 18:07 38.84247 -28.04159 3504 ft 225 kts 205°
2026-05-08 18:07 38.82784 -28.04875 3499 ft 225 kts 206°
2026-05-08 18:07 38.81429 -28.05816 3497 ft 217 kts 225°
2026-05-08 18:07 38.80432 -28.07225 3498 ft 210 kts 243°
2026-05-08 18:08 38.79640 -28.08796 3499 ft 210 kts 243°
2026-05-08 18:08 38.78830 -28.10365 3502 ft 212 kts 243°
2026-05-08 18:08 38.78017 -28.11944 3504 ft 212 kts 243°
2026-05-08 18:08 38.77205 -28.13527 3506 ft 213 kts 244°
2026-05-08 18:09 38.76398 -28.15100 3506 ft 214 kts 244°
2026-05-08 18:09 38.75582 -28.16688 3508 ft 214 kts 243°
2026-05-08 18:09 38.74760 -28.18288 3484 ft 214 kts 243°
2026-05-08 18:09 38.73819 -28.19780 3478 ft 220 kts 226°
2026-05-08 18:10 38.72510 -28.20747 3465 ft 207 kts 204°
2026-05-08 18:10 38.71183 -28.21055 3420 ft 184 kts 184°
2026-05-08 18:10 38.69882 -28.21130 2669 ft 191 kts 188°
2026-05-08 18:10 38.68550 -28.21367 1670 ft 196 kts 194°
2026-05-08 18:11 38.67244 -28.21557 1007 ft 184 kts 162°
2026-05-08 18:11 38.66648 -28.20470 754 ft 149 kts 72°
2026-05-08 18:11 38.66876 -28.19229 598 ft 139 kts 68°
2026-05-08 18:11 38.66781 -28.18086 493 ft 139 kts 107°
2026-05-08 18:12 38.66270 -28.16960 461 ft 146 kts 112°
2026-05-08 18:12 38.65572 -28.16055 480 ft 149 kts 155°
2026-05-08 18:12 38.64604 -28.15666 624 ft 145 kts 167°
2026-05-08 18:12 38.63608 -28.15375 663 ft 154 kts 170°
2026-05-08 18:13 38.62566 -28.15154 703 ft 151 kts 172°
2026-05-08 18:13 38.61803 -28.14460 818 ft 133 kts 95°
2026-05-08 18:13 38.62260 -28.13682 698 ft 120 kts 354°
2026-05-08 18:13 38.63021 -28.13959 744 ft 108 kts 346°
2026-05-08 18:14 38.63719 -28.14229 952 ft 100 kts 338°
2026-05-08 18:14 38.64318 -28.14736 964 ft 111 kts 326°
2026-05-08 18:14 38.64859 -28.15282 792 ft 84 kts 327°
2026-05-08 18:14 38.65292 -28.15693 585 ft 76 kts 327°
2026-05-08 18:15 38.65697 -28.16070 472 ft 69 kts 328°
2026-05-08 18:15 38.66053 -28.16481 362 ft 70 kts 313°
2026-05-08 18:15 38.66313 -28.17023 353 ft 60 kts 320°
2026-05-08 18:15 38.66474 -28.17311 349 ft 25 kts 299°
2026-05-08 18:16 38.66534 -28.17472 344 ft 10 kts 267°
2026-05-08 18:16 38.66520 -28.17471 344 ft 0 kts 114°
2026-05-08 18:16 38.66514 -28.17456 344 ft 5 kts 114°
2026-05-08 18:16 38.66501 -28.17418 343 ft 7 kts 114°
2026-05-08 18:17 38.66475 -28.17345 352 ft 15 kts 114°
2026-05-08 18:17 38.66416 -28.17185 349 ft 27 kts 117°
2026-05-08 18:17 38.66359 -28.17000 352 ft 12 kts 77°
2026-05-08 18:17 38.66391 -28.16904 350 ft 12 kts 92°
2026-05-08 18:18 38.66419 -28.16847 344 ft 4 kts 75°
2026-05-08 18:18 38.66410 -28.16839 343 ft 0 kts 200°
2026-05-08 18:33 0.00613 0.00000 53808 ft 0 kts